Terminal Aerodrome Forecast
Issued by NWS

Home | Current Version | Previous Version | Text Only | Print | Product List | Glossary On
Versions: 1 2 3 4 5 6 7 8 9 10 11 12 13 14 15 16 17 18 19 20
702
FTUS43 KAPX 172341
TAFMBL
TAF
KMBL 172341Z 1800/1824 23010G19KT 1 1/2SM -SN OVC015
     FM180100 25011G20KT 4SM -SN OVC015
     FM180200 27012G22KT P6SM OVC015
     FM180500 28012G22KT P6SM BKN040
     FM180800 29010G19KT P6SM SCT250
     FM181100 28005KT P6SM SCT250
     FM181400 20004KT P6SM BKN100
     FM182300 17014G22KT P6SM BKN120 WS020/18045KT=

USA.gov is the U.S. government's official web portal to all federal, state and local government web resources and services.